Time;durP1;ratioP1;P1;durP2;ratioP2;P2;SDS_P1;SDS_P2;PMS_P1;PMS_P2;Temp;Humidity;BMP_temperature;BMP_pressure;BME280_temperature;BME280_humidity;BME280_pressure;Samples;Min_cycle;Max_cycle;Signal;HPM_P1;HPM_P2
2023/07/13 00:02:21;;;;;;;;;;;;;;;;;;5082908;27;90217;-69
2023/07/13 00:04:46;;;;;;;;;;;;;;;;;;5082275;27;90149;-69
2023/07/13 00:07:14;;;;;;;;;;;;;;;;;;5080488;27;90527;-69
2023/07/13 00:09:39;;;;;;;;;;;;;;;;;;5079242;27;89399;-70
2023/07/13 00:12:06;;;;;;;;;;;;;;;;;;5086961;27;91543;-69
2023/07/13 00:14:32;;;;;;;;;;;;;;;;;;5082927;27;90121;-69
2023/07/13 00:17:00;;;;;;;;;;;;;;;;;;5078757;27;89344;-69
2023/07/13 00:19:25;;;;;;;;;;;;;;;;;;5079251;27;90787;-70
2023/07/13 00:21:50;;;;;;;;;;;;;;;;;;5081122;27;91517;-69
2023/07/13 00:24:21;;;;;;;;;;;;;;;;;;5080250;27;91183;-69
2023/07/13 00:26:47;;;;;;;;;;;;;;;;;;5078687;27;90675;-69
2023/07/13 00:29:12;;;;;;;;;;;;;;;;;;5085209;27;90342;-69
2023/07/13 00:31:38;;;;;;;;;;;;;;;;;;5079190;27;89569;-69
2023/07/13 00:34:03;;;;;;;;;;;;;;;;;;5084297;27;89687;-68
2023/07/13 00:36:29;;;;;;;;;;;;;;;;;;5082929;27;89794;-70
2023/07/13 00:38:55;;;;;;;;;;;;;;;;;;5084481;27;89451;-70
2023/07/13 00:41:20;;;;;;;;;;;;;;;;;;5082703;27;89979;-70
2023/07/13 00:43:45;;;;;;;;;;;;;;;;;;5079664;27;89333;-70
2023/07/13 00:46:22;;;;;;;;;;;;;;;;;;5085587;27;90672;-69
2023/07/13 00:48:48;;;;;;;;;;;;;;;;;;5083970;27;89676;-69
2023/07/13 00:51:13;;;;;;;;;;;;;;;;;;5075518;27;89140;-69
2023/07/13 00:53:39;;;;;;;;;;;;;;;;;;5078742;27;90906;-68
2023/07/13 00:56:04;;;;;;;;;;;;;;;;;;5083287;27;89749;-69
2023/07/13 00:58:30;;;;;;;;;;;;;;;;;;5083733;27;89174;-70
2023/07/13 01:00:55;;;;;;;;;;;;;;;;;;5076676;27;89023;-71
2023/07/13 01:03:21;;;;;;;;;;;;;;;;;;5080829;27;89400;-69
2023/07/13 01:05:48;;;;;;;;;;;;;;;;;;5082404;27;89658;-69
2023/07/13 01:08:13;;;;;;;;;;;;;;;;;;5074154;27;89283;-69
2023/07/13 01:10:38;;;;;;;;;;;;;;;;;;5083777;27;89474;-69
2023/07/13 01:13:04;;;;;;;;;;;;;;;;;;5087215;27;89635;-68
2023/07/13 01:15:37;;;;;;;;;;;;;;;;;;5082581;27;89464;-69
2023/07/13 01:18:03;;;;;;;;;;;;;;;;;;5078451;27;89994;-69
2023/07/13 01:20:28;;;;;;;;;;;;;;;;;;5084351;27;90124;-69
2023/07/13 01:22:54;;;;;;;;;;;;;;;;;;5086611;27;89122;-70
2023/07/13 01:25:20;;;;;;;;;;;;;;;;;;5083661;27;90183;-69
2023/07/13 01:27:45;;;;;;;;;;;;;;;;;;5081999;27;89494;-70
2023/07/13 01:30:11;;;;;;;;;;;;;;;;;;5084524;27;89821;-69
2023/07/13 01:32:36;;;;;;;;;;;;;;;;;;5084371;27;89559;-68
2023/07/13 01:35:01;;;;;;;;;;;;;;;;;;5085103;27;90096;-68
2023/07/13 01:37:27;;;;;;;;;;;;;;;;;;5082381;27;88993;-69
2023/07/13 01:39:52;;;;;;;;;;;;;;;;;;5083585;27;89727;-68
2023/07/13 01:42:18;;;;;;;;;;;;;;;;;;5084577;27;90191;-69
2023/07/13 01:44:43;;;;;;;;;;;;;;;;;;5088316;27;89606;-70
2023/07/13 01:47:09;;;;;;;;;;;;;;;;;;5077367;27;93322;-69
2023/07/13 01:49:34;;;;;;;;;;;;;;;;;;5081470;27;89897;-68
2023/07/13 01:52:00;;;;;;;;;;;;;;;;;;5083757;27;91238;-70
2023/07/13 01:54:25;;;;;;;;;;;;;;;;;;5081861;27;90493;-69
2023/07/13 01:56:50;;;;;;;;;;;;;;;;;;5085556;27;90326;-69
2023/07/13 01:59:16;;;;;;;;;;;;;;;;;;5081265;27;89254;-70
2023/07/13 02:01:41;;;;;;;;;;;;;;;;;;5080743;27;89489;-70
2023/07/13 02:04:06;;;;;;;;;;;;;;;;;;5078272;27;89151;-69
2023/07/13 02:06:31;;;;;;;;;;;;;;;;;;5081407;27;89541;-70
2023/07/13 02:08:57;;;;;;;;;;;;;;;;;;5078525;27;89048;-69
2023/07/13 02:11:22;;;;;;;;;;;;;;;;;;5078898;27;89607;-69
2023/07/13 02:13:48;;;;;;;;;;;;;;;;;;5081108;27;89386;-70
2023/07/13 02:16:13;;;;;;;;;;;;;;;;;;5079963;27;89452;-68
2023/07/13 02:18:39;;;;;;;;;;;;;;;;;;5075924;27;90864;-68
2023/07/13 02:21:04;;;;;;;;;;;;;;;;;;5082964;27;89385;-69
2023/07/13 02:23:29;;;;;;;;;;;;;;;;;;5083821;27;90950;-69
2023/07/13 02:25:58;;;;;;;;;;;;;;;;;;5082238;27;89879;-69
2023/07/13 02:28:23;;;;;;;;;;;;;;;;;;5086357;27;89277;-69
2023/07/13 02:30:49;;;;;;;;;;;;;;;;;;5079891;27;89695;-69
2023/07/13 02:33:14;;;;;;;;;;;;;;;;;;5082884;27;90148;-69
2023/07/13 02:35:40;;;;;;;;;;;;;;;;;;5084298;27;90425;-69
2023/07/13 02:38:05;;;;;;;;;;;;;;;;;;5085545;27;89547;-70
2023/07/13 02:40:33;;;;;;;;;;;;;;;;;;5084664;27;89378;-68
2023/07/13 02:42:58;;;;;;;;;;;;;;;;;;5082356;27;89622;-69
2023/07/13 02:45:23;;;;;;;;;;;;;;;;;;5085602;27;89410;-68
2023/07/13 02:47:48;;;;;;;;;;;;;;;;;;5084932;27;89094;-68
2023/07/13 02:50:13;;;;;;;;;;;;;;;;;;5083513;27;89693;-68
2023/07/13 02:52:39;;;;;;;;;;;;;;;;;;5078967;27;89321;-68
2023/07/13 02:55:04;;;;;;;;;;;;;;;;;;5079548;27;89097;-69
2023/07/13 02:57:30;;;;;;;;;;;;;;;;;;5081282;27;89485;-68
2023/07/13 02:59:55;;;;;;;;;;;;;;;;;;5087886;27;90430;-68
2023/07/13 03:02:20;;;;;;;;;;;;;;;;;;5083536;27;90106;-68
2023/07/13 03:04:46;;;;;;;;;;;;;;;;;;5084497;27;89154;-68
2023/07/13 03:07:11;;;;;;;;;;;;;;;;;;5088096;27;89675;-69
2023/07/13 03:09:36;;;;;;;;;;;;;;;;;;5081285;27;89745;-68
2023/07/13 03:12:02;;;;;;;;;;;;;;;;;;5084610;27;89098;-69
2023/07/13 03:14:27;;;;;;;;;;;;;;;;;;5086396;27;89161;-69
2023/07/13 03:16:52;;;;;;;;;;;;;;;;;;5083747;27;89390;-68
2023/07/13 03:19:18;;;;;;;;;;;;;;;;;;5085089;27;89816;-68
2023/07/13 03:21:43;;;;;;;;;;;;;;;;;;5088759;27;89534;-67
2023/07/13 03:24:09;;;;;;;;;;;;;;;;;;5081356;27;89780;-68
2023/07/13 03:26:34;;;;;;;;;;;;;;;;;;5089419;27;89400;-70
2023/07/13 03:28:59;;;;;;;;;;;;;;;;;;5084718;27;90364;-68
2023/07/13 03:31:26;;;;;;;;;;;;;;;;;;5077965;27;89161;-68
2023/07/13 03:33:52;;;;;;;;;;;;;;;;;;5081688;27;89142;-69
2023/07/13 03:36:19;;;;;;;;;;;;;;;;;;5086062;27;89617;-69
2023/07/13 03:38:46;;;;;;;;;;;;;;;;;;5083943;27;90148;-69
2023/07/13 03:41:11;;;;;;;;;;;;;;;;;;5083872;27;89130;-68
2023/07/13 03:43:36;;;;;;;;;;;;;;;;;;5073229;27;89602;-68
2023/07/13 03:46:01;;;;;;;;;;;;;;;;;;5080654;27;89843;-70
2023/07/13 03:48:27;;;;;;;;;;;;;;;;;;5082798;27;89376;-68
2023/07/13 03:50:52;;;;;;;;;;;;;;;;;;5088542;27;89501;-68
2023/07/13 03:53:18;;;;;;;;;;;;;;;;;;5078818;27;88995;-69
2023/07/13 03:55:44;;;;;;;;;;;;;;;;;;5075998;27;92534;-70
2023/07/13 03:58:26;;;;;;;;;;;;;;;;;;5080018;27;90162;-69
2023/07/13 04:00:52;;;;;;;;;;;;;;;;;;5077428;27;89953;-70
2023/07/13 04:03:17;;;;;;;;;;;;;;;;;;5080046;27;89512;-70
2023/07/13 04:05:42;;;;;;;;;;;;;;;;;;5080960;27;90109;-71
2023/07/13 04:08:08;;;;;;;;;;;;;;;;;;5077152;27;89291;-71
2023/07/13 04:10:33;;;;;;;;;;;;;;;;;;5081375;27;90174;-69
2023/07/13 04:12:59;;;;;;;;;;;;;;;;;;5086715;27;89290;-70
2023/07/13 04:15:24;;;;;;;;;;;;;;;;;;5083257;27;89999;-69
2023/07/13 04:17:49;;;;;;;;;;;;;;;;;;5075980;27;89503;-68
2023/07/13 04:20:14;;;;;;;;;;;;;;;;;;5074873;27;89565;-69
2023/07/13 04:22:40;;;;;;;;;;;;;;;;;;5078040;27;89629;-69
2023/07/13 04:25:05;;;;;;;;;;;;;;;;;;5080099;27;90574;-68
2023/07/13 04:27:31;;;;;;;;;;;;;;;;;;5073789;27;89605;-68
2023/07/13 04:29:56;;;;;;;;;;;;;;;;;;5082345;27;89582;-68
2023/07/13 04:32:21;;;;;;;;;;;;;;;;;;5080249;27;90387;-69
2023/07/13 04:34:46;;;;;;;;;;;;;;;;;;5081670;27;89495;-70
2023/07/13 04:37:11;;;;;;;;;;;;;;;;;;5081168;27;89581;-68
2023/07/13 04:39:37;;;;;;;;;;;;;;;;;;5078039;27;89600;-68
2023/07/13 04:42:02;;;;;;;;;;;;;;;;;;5076966;27;90670;-69
2023/07/13 04:44:28;;;;;;;;;;;;;;;;;;5072279;27;90402;-68
2023/07/13 04:46:53;;;;;;;;;;;;;;;;;;5080491;27;89525;-69
2023/07/13 04:49:18;;;;;;;;;;;;;;;;;;5081118;27;89615;-69
2023/07/13 04:51:43;;;;;;;;;;;;;;;;;;5079054;27;89234;-68
2023/07/13 04:54:09;;;;;;;;;;;;;;;;;;5084149;27;90244;-69
2023/07/13 04:56:34;;;;;;;;;;;;;;;;;;5078772;27;90034;-68
2023/07/13 04:58:59;;;;;;;;;;;;;;;;;;5082649;27;89506;-70
2023/07/13 05:01:24;;;;;;;;;;;;;;;;;;5074474;27;89956;-68
2023/07/13 05:03:50;;;;;;;;;;;;;;;;;;5080426;27;90076;-68
2023/07/13 05:06:15;;;;;;;;;;;;;;;;;;5078676;27;90413;-68
2023/07/13 05:08:40;;;;;;;;;;;;;;;;;;5080526;27;90445;-68
2023/07/13 05:11:06;;;;;;;;;;;;;;;;;;5080532;27;90027;-68
2023/07/13 05:13:32;;;;;;;;;;;;;;;;;;5081364;27;90313;-70
2023/07/13 05:16:04;;;;;;;;;;;;;;;;;;5081274;27;90781;-69
2023/07/13 05:18:29;;;;;;;;;;;;;;;;;;5083040;27;89319;-68
2023/07/13 05:20:59;;;;;;;;;;;;;;;;;;5082262;27;90765;-68
2023/07/13 05:23:24;;;;;;;;;;;;;;;;;;5082600;27;89707;-70
2023/07/13 05:25:49;;;;;;;;;;;;;;;;;;5078911;27;89448;-69
2023/07/13 05:28:15;;;;;;;;;;;;;;;;;;5081938;27;90096;-68
2023/07/13 05:30:44;;;;;;;;;;;;;;;;;;5075982;27;89965;-68
2023/07/13 05:33:09;;;;;;;;;;;;;;;;;;5078713;27;89726;-69
2023/07/13 05:35:35;;;;;;;;;;;;;;;;;;5077679;27;92316;-69
2023/07/13 05:38:00;;;;;;;;;;;;;;;;;;5076444;27;89225;-70
2023/07/13 05:40:25;;;;;;;;;;;;;;;;;;5079165;27;89829;-69
2023/07/13 05:42:50;;;;;;;;;;;;;;;;;;5078880;27;89055;-72
2023/07/13 05:45:16;;;;;;;;;;;;;;;;;;5091605;27;90499;-69
2023/07/13 05:47:41;;;;;;;;;;;;;;;;;;5075676;27;92291;-71
2023/07/13 05:50:06;;;;;;;;;;;;;;;;;;5082475;27;89194;-72
2023/07/13 05:52:32;;;;;;;;;;;;;;;;;;5078279;27;89172;-70
2023/07/13 05:54:57;;;;;;;;;;;;;;;;;;5082841;27;89547;-69
2023/07/13 05:57:22;;;;;;;;;;;;;;;;;;5080018;27;91057;-71
2023/07/13 05:59:47;;;;;;;;;;;;;;;;;;5085969;27;90200;-70
2023/07/13 06:02:13;;;;;;;;;;;;;;;;;;5079303;27;89600;-70
2023/07/13 06:04:38;;;;;;;;;;;;;;;;;;5079865;27;89076;-69
2023/07/13 06:07:04;;;;;;;;;;;;;;;;;;5085351;27;89550;-74
2023/07/13 06:09:29;;;;;;;;;;;;;;;;;;5082646;27;89177;-71
2023/07/13 06:11:54;;;;;;;;;;;;;;;;;;5080624;27;89354;-70
2023/07/13 06:14:20;;;;;;;;;;;;;;;;;;5080979;27;89541;-69
2023/07/13 06:16:45;;;;;;;;;;;;;;;;;;5081141;27;90616;-69
2023/07/13 06:19:10;;;;;;;;;;;;;;;;;;5084375;27;89262;-71
2023/07/13 06:21:36;;;;;;;;;;;;;;;;;;5082378;27;90822;-70
2023/07/13 06:24:01;;;;;;;;;;;;;;;;;;5082114;27;90110;-69
2023/07/13 06:26:26;;;;;;;;;;;;;;;;;;5081711;27;89568;-70
2023/07/13 06:28:52;;;;;;;;;;;;;;;;;;5079867;27;89123;-69
2023/07/13 06:31:17;;;;;;;;;;;;;;;;;;5080315;27;89020;-69
2023/07/13 06:33:43;;;;;;;;;;;;;;;;;;5080399;27;90087;-73
2023/07/13 06:36:09;;;;;;;;;;;;;;;;;;5084853;27;90609;-76
2023/07/13 06:38:35;;;;;;;;;;;;;;;;;;5083630;27;89847;-76
2023/07/13 06:41:00;;;;;;;;;;;;;;;;;;5077875;27;89577;-68
2023/07/13 06:43:25;;;;;;;;;;;;;;;;;;5087029;27;89499;-70
2023/07/13 06:45:51;;;;;;;;;;;;;;;;;;5085557;27;89612;-69
2023/07/13 06:48:17;;;;;;;;;;;;;;;;;;5076844;27;90245;-70
2023/07/13 06:50:43;;;;;;;;;;;;;;;;;;5081014;27;89335;-68
2023/07/13 06:53:08;;;;;;;;;;;;;;;;;;5079726;27;90792;-70
2023/07/13 06:55:34;;;;;;;;;;;;;;;;;;5080946;27;90269;-69
2023/07/13 06:57:59;;;;;;;;;;;;;;;;;;5079936;27;89673;-70
2023/07/13 07:00:24;;;;;;;;;;;;;;;;;;5081575;27;89570;-72
2023/07/13 07:02:49;;;;;;;;;;;;;;;;;;5079162;27;89284;-70
2023/07/13 07:05:15;;;;;;;;;;;;;;;;;;5080034;27;89821;-73
2023/07/13 07:07:40;;;;;;;;;;;;;;;;;;5079091;27;90358;-69
2023/07/13 07:10:05;;;;;;;;;;;;;;;;;;5082608;27;89556;-72
2023/07/13 07:12:30;;;;;;;;;;;;;;;;;;5083737;27;89558;-70
2023/07/13 07:14:56;;;;;;;;;;;;;;;;;;5078221;27;89897;-71
2023/07/13 07:17:21;;;;;;;;;;;;;;;;;;5078114;27;89907;-70
2023/07/13 07:19:46;;;;;;;;;;;;;;;;;;5076489;27;89611;-70
2023/07/13 07:22:11;;;;;;;;;;;;;;;;;;5077568;27;90344;-71
2023/07/13 07:24:37;;;;;;;;;;;;;;;;;;5083232;27;90130;-71
2023/07/13 07:27:02;;;;;;;;;;;;;;;;;;5082497;27;89200;-73
2023/07/13 07:29:28;;;;;;;;;;;;;;;;;;5081335;27;89278;-74
2023/07/13 07:31:53;;;;;;;;;;;;;;;;;;5080016;27;89632;-74
2023/07/13 07:34:18;;;;;;;;;;;;;;;;;;5082581;27;90001;-74
2023/07/13 07:36:44;;;;;;;;;;;;;;;;;;5078039;27;89618;-74
2023/07/13 07:39:09;;;;;;;;;;;;;;;;;;5084622;27;89798;-74
2023/07/13 07:41:34;;;;;;;;;;;;;;;;;;5081778;27;89269;-73
2023/07/13 07:44:00;;;;;;;;;;;;;;;;;;5078516;27;89510;-71
2023/07/13 07:46:25;;;;;;;;;;;;;;;;;;5084574;27;91265;-71
2023/07/13 07:48:50;;;;;;;;;;;;;;;;;;5082476;27;90005;-69
2023/07/13 07:51:16;;;;;;;;;;;;;;;;;;5077896;27;91276;-69
2023/07/13 07:53:41;;;;;;;;;;;;;;;;;;5078839;27;90666;-70
2023/07/13 07:56:06;;;;;;;;;;;;;;;;;;5076333;27;89625;-70
2023/07/13 07:58:31;;;;;;;;;;;;;;;;;;5079297;27;90095;-72
2023/07/13 08:01:04;;;;;;;;;;;;;;;;;;5082738;27;89516;-71
2023/07/13 08:03:29;;;;;;;;;;;;;;;;;;5074684;27;90128;-70
2023/07/13 08:05:54;;;;;;;;;;;;;;;;;;5078197;27;89103;-71
2023/07/13 08:08:19;;;;;;;;;;;;;;;;;;5081103;27;89243;-72
2023/07/13 08:10:45;;;;;;;;;;;;;;;;;;5077927;27;90978;-70
2023/07/13 08:13:10;;;;;;;;;;;;;;;;;;5082884;27;89207;-71
2023/07/13 08:15:36;;;;;;;;;;;;;;;;;;5080159;27;89673;-69
2023/07/13 08:18:02;;;;;;;;;;;;;;;;;;5078218;27;89983;-69
2023/07/13 08:20:27;;;;;;;;;;;;;;;;;;5074290;27;90197;-69
2023/07/13 08:22:52;;;;;;;;;;;;;;;;;;5078833;27;90551;-69
2023/07/13 08:25:17;;;;;;;;;;;;;;;;;;5074708;27;89687;-68
2023/07/13 08:27:43;;;;;;;;;;;;;;;;;;5076967;27;91115;-70
2023/07/13 08:30:08;;;;;;;;;;;;;;;;;;5082351;27;89467;-69
2023/07/13 08:32:33;;;;;;;;;;;;;;;;;;5078156;27;89601;-69
2023/07/13 08:34:59;;;;;;;;;;;;;;;;;;5080376;27;89794;-69
2023/07/13 08:37:24;;;;;;;;;;;;;;;;;;5074484;27;89547;-70
2023/07/13 08:39:49;;;;;;;;;;;;;;;;;;5078264;27;90072;-69
2023/07/13 08:42:22;;;;;;;;;;;;;;;;;;5078422;27;89026;-71
2023/07/13 08:44:58;;;;;;;;;;;;;;;;;;5079031;27;90081;-69
2023/07/13 08:47:23;;;;;;;;;;;;;;;;;;5082897;27;89587;-70
2023/07/13 08:49:49;;;;;;;;;;;;;;;;;;5077653;27;89539;-68
2023/07/13 08:52:29;;;;;;;;;;;;;;;;;;5083371;27;89665;-73
2023/07/13 08:54:55;;;;;;;;;;;;;;;;;;5084202;27;89129;-69
2023/07/13 08:57:23;;;;;;;;;;;;;;;;;;5078796;27;89723;-69
2023/07/13 08:59:49;;;;;;;;;;;;;;;;;;5078722;27;89135;-69
2023/07/13 09:02:14;;;;;;;;;;;;;;;;;;5077941;27;89709;-70
2023/07/13 09:04:43;;;;;;;;;;;;;;;;;;5079128;27;90672;-68
2023/07/13 09:07:28;;;;;;;;;;;;;;;;;;5076320;27;89166;-70
2023/07/13 09:10:11;;;;;;;;;;;;;;;;;;5078337;27;90860;-70
2023/07/13 09:12:46;;;;;;;;;;;;;;;;;;5085080;27;89439;-73
2023/07/13 09:15:31;;;;;;;;;;;;;;;;;;5076942;27;89841;-70
2023/07/13 09:17:59;;;;;;;;;;;;;;;;;;5079741;27;91953;-71
2023/07/13 09:20:30;;;;;;;;;;;;;;;;;;5079703;27;90182;-70
2023/07/13 09:22:55;;;;;;;;;;;;;;;;;;5078240;27;89313;-70
2023/07/13 09:25:26;;;;;;;;;;;;;;;;;;5078964;27;89486;-70
2023/07/13 09:27:54;;;;;;;;;;;;;;;;;;5076574;27;89644;-70
2023/07/13 09:30:32;;;;;;;;;;;;;;;;;;5082019;27;89138;-71
2023/07/13 09:32:58;;;;;;;;;;;;;;;;;;5079902;27;89874;-70
2023/07/13 09:35:27;;;;;;;;;;;;;;;;;;5083044;27;90161;-70
2023/07/13 09:37:57;;;;;;;;;;;;;;;;;;5082049;27;89645;-72
2023/07/13 09:40:36;;;;;;;;;;;;;;;;;;5075867;27;91430;-69
2023/07/13 09:43:04;;;;;;;;;;;;;;;;;;5080881;27;89987;-71
2023/07/13 09:45:30;;;;;;;;;;;;;;;;;;5078210;27;90531;-70
2023/07/13 09:48:06;;;;;;;;;;;;;;;;;;5080664;27;89242;-68
2023/07/13 09:50:33;;;;;;;;;;;;;;;;;;5078054;27;89200;-69
2023/07/13 09:53:00;;;;;;;;;;;;;;;;;;5076184;27;90757;-69
2023/07/13 09:55:34;;;;;;;;;;;;;;;;;;5078745;27;90232;-69
2023/07/13 09:58:05;;;;;;;;;;;;;;;;;;5080433;27;89439;-69
2023/07/13 10:00:30;;;;;;;;;;;;;;;;;;5079397;27;90598;-71
2023/07/13 10:02:58;;;;;;;;;;;;;;;;;;5076568;27;90359;-73
2023/07/13 10:05:24;;;;;;;;;;;;;;;;;;5074647;27;89615;-72
2023/07/13 10:07:49;;;;;;;;;;;;;;;;;;5077477;27;90243;-72
2023/07/13 10:10:20;;;;;;;;;;;;;;;;;;5075447;27;89962;-70
2023/07/13 10:12:46;;;;;;;;;;;;;;;;;;5079770;27;89508;-70
2023/07/13 10:15:15;;;;;;;;;;;;;;;;;;5079887;27;89842;-70
2023/07/13 10:17:41;;;;;;;;;;;;;;;;;;5079243;27;89635;-73
2023/07/13 10:20:12;;;;;;;;;;;;;;;;;;5081120;27;89885;-72
2023/07/13 10:22:56;;;;;;;;;;;;;;;;;;5084414;27;89141;-73
2023/07/13 10:25:25;;;;;;;;;;;;;;;;;;5076976;27;89691;-72
2023/07/13 10:27:51;;;;;;;;;;;;;;;;;;5077147;27;91920;-70
2023/07/13 10:30:30;;;;;;;;;;;;;;;;;;5085603;27;89629;-71
2023/07/13 10:33:01;;;;;;;;;;;;;;;;;;5075957;27;91482;-73
2023/07/13 10:35:28;;;;;;;;;;;;;;;;;;5088685;27;92073;-71
2023/07/13 10:37:57;;;;;;;;;;;;;;;;;;5078087;27;89290;-75
2023/07/13 10:40:27;;;;;;;;;;;;;;;;;;5074818;27;89828;-75
2023/07/13 10:42:54;;;;;;;;;;;;;;;;;;5084187;27;89219;-75
2023/07/13 10:45:21;;;;;;;;;;;;;;;;;;5079809;27;89582;-75
2023/07/13 10:47:47;;;;;;;;;;;;;;;;;;5074962;27;92482;-75
2023/07/13 10:50:17;;;;;;;;;;;;;;;;;;5083774;27;89103;-75
2023/07/13 10:52:46;;;;;;;;;;;;;;;;;;5078760;27;89495;-75
2023/07/13 10:55:31;;;;;;;;;;;;;;;;;;5076284;27;90317;-75
2023/07/13 10:57:59;;;;;;;;;;;;;;;;;;5081136;27;89613;-75
2023/07/13 11:00:24;;;;;;;;;;;;;;;;;;5086825;27;89787;-75
2023/07/13 11:02:57;;;;;;;;;;;;;;;;;;5082545;27;90828;-75
2023/07/13 11:05:27;;;;;;;;;;;;;;;;;;5079157;27;91257;-75
2023/07/13 11:07:55;;;;;;;;;;;;;;;;;;5081689;27;90194;-75
2023/07/13 11:10:39;;;;;;;;;;;;;;;;;;5076717;27;89775;-75
2023/07/13 11:13:04;;;;;;;;;;;;;;;;;;5078768;27;89690;-75
2023/07/13 11:15:32;;;;;;;;;;;;;;;;;;5077610;27;90297;-75
2023/07/13 11:18:01;;;;;;;;;;;;;;;;;;5094299;27;89052;-74
2023/07/13 11:20:33;;;;;;;;;;;;;;;;;;5077426;27;91977;-74
2023/07/13 11:23:10;;;;;;;;;;;;;;;;;;5080866;27;89993;-75
2023/07/13 11:25:37;;;;;;;;;;;;;;;;;;5085699;27;89866;-75
2023/07/13 11:28:11;;;;;;;;;;;;;;;;;;5080311;27;89761;-75
2023/07/13 11:30:52;;;;;;;;;;;;;;;;;;5075850;27;89116;-75
2023/07/13 11:33:22;;;;;;;;;;;;;;;;;;5085469;27;89439;-75
2023/07/13 11:35:53;;;;;;;;;;;;;;;;;;5080719;27;89747;-75
2023/07/13 11:38:20;;;;;;;;;;;;;;;;;;5083286;27;89446;-75
2023/07/13 11:40:46;;;;;;;;;;;;;;;;;;5079801;27;92288;-75
2023/07/13 11:43:13;;;;;;;;;;;;;;;;;;5081422;27;89049;-75
2023/07/13 11:45:38;;;;;;;;;;;;;;;;;;5082039;27;90279;-75
2023/07/13 11:48:04;;;;;;;;;;;;;;;;;;5083250;27;89508;-75
2023/07/13 11:50:29;;;;;;;;;;;;;;;;;;5081565;27;89596;-75
2023/07/13 11:52:55;;;;;;;;;;;;;;;;;;5079982;27;92297;-75
2023/07/13 11:55:22;;;;;;;;;;;;;;;;;;5078030;27;90241;-75
2023/07/13 11:57:50;;;;;;;;;;;;;;;;;;5084842;27;89070;-76
2023/07/13 12:00:18;;;;;;;;;;;;;;;;;;5081065;27;89924;-75
2023/07/13 12:02:45;;;;;;;;;;;;;;;;;;5081068;27;90207;-75
2023/07/13 12:05:15;;;;;;;;;;;;;;;;;;5083227;27;89732;-75
2023/07/13 12:07:40;;;;;;;;;;;;;;;;;;5080471;27;90593;-75
2023/07/13 12:10:11;;;;;;;;;;;;;;;;;;5082062;27;89371;-75
2023/07/13 12:12:37;;;;;;;;;;;;;;;;;;5079747;27;89552;-75
2023/07/13 12:15:06;;;;;;;;;;;;;;;;;;5079615;27;89423;-75
2023/07/13 12:17:31;;;;;;;;;;;;;;;;;;5081830;27;89621;-75
2023/07/13 12:19:57;;;;;;;;;;;;;;;;;;5082211;27;89432;-75
2023/07/13 12:22:22;;;;;;;;;;;;;;;;;;5077235;27;90164;-75
2023/07/13 12:24:48;;;;;;;;;;;;;;;;;;5080548;27;89178;-75
2023/07/13 12:27:19;;;;;;;;;;;;;;;;;;5081391;27;90476;-75
2023/07/13 12:30:01;;;;;;;;;;;;;;;;;;5079407;27;89107;-76
2023/07/13 12:32:26;;;;;;;;;;;;;;;;;;5078892;27;90534;-75
2023/07/13 12:34:56;;;;;;;;;;;;;;;;;;5077218;27;89774;-75
2023/07/13 12:37:23;;;;;;;;;;;;;;;;;;5075148;27;89460;-75
2023/07/13 12:39:49;;;;;;;;;;;;;;;;;;5078101;27;89802;-75
2023/07/13 12:42:28;;;;;;;;;;;;;;;;;;5078082;27;89414;-75
2023/07/13 12:44:56;;;;;;;;;;;;;;;;;;5079439;27;89086;-75
2023/07/13 12:47:21;;;;;;;;;;;;;;;;;;5077247;27;89951;-75
2023/07/13 12:49:48;;;;;;;;;;;;;;;;;;5079748;27;90251;-76
2023/07/13 12:52:20;;;;;;;;;;;;;;;;;;5077733;27;89078;-76
2023/07/13 12:55:15;;;;;;;;;;;;;;;;;;5086316;27;89484;-75
2023/07/13 12:57:43;;;;;;;;;;;;;;;;;;5068295;27;89707;-75
2023/07/13 13:00:29;;;;;;;;;;;;;;;;;;5078569;27;89554;-75
2023/07/13 13:02:55;;;;;;;;;;;;;;;;;;5079821;27;89522;-75
2023/07/13 13:05:23;;;;;;;;;;;;;;;;;;5080397;27;89035;-75
2023/07/13 13:07:48;;;;;;;;;;;;;;;;;;5080996;27;91196;-75
2023/07/13 13:10:14;;;;;;;;;;;;;;;;;;5078075;27;89269;-75
2023/07/13 13:12:42;;;;;;;;;;;;;;;;;;5079318;27;89871;-75
2023/07/13 13:15:08;;;;;;;;;;;;;;;;;;5081528;27;90962;-75
2023/07/13 13:17:34;;;;;;;;;;;;;;;;;;5076416;27;89648;-75
2023/07/13 13:19:59;;;;;;;;;;;;;;;;;;5075002;27;90815;-75
2023/07/13 13:22:24;;;;;;;;;;;;;;;;;;5073962;27;89052;-75
2023/07/13 13:24:49;;;;;;;;;;;;;;;;;;5080192;27;89365;-75
2023/07/13 13:27:17;;;;;;;;;;;;;;;;;;5078613;27;90588;-75
2023/07/13 13:29:43;;;;;;;;;;;;;;;;;;5074276;27;89842;-75
2023/07/13 13:32:11;;;;;;;;;;;;;;;;;;5078295;27;89323;-75
2023/07/13 13:34:36;;;;;;;;;;;;;;;;;;5075848;27;90741;-75
2023/07/13 13:37:02;;;;;;;;;;;;;;;;;;5080706;27;89285;-75
2023/07/13 13:39:34;;;;;;;;;;;;;;;;;;5081284;27;89702;-75
2023/07/13 13:42:00;;;;;;;;;;;;;;;;;;5075551;27;89345;-75
2023/07/13 13:44:25;;;;;;;;;;;;;;;;;;5078531;27;89185;-75
2023/07/13 13:46:52;;;;;;;;;;;;;;;;;;5079709;27;89466;-75
2023/07/13 13:49:20;;;;;;;;;;;;;;;;;;5080735;27;89220;-76
2023/07/13 13:51:46;;;;;;;;;;;;;;;;;;5079213;27;89082;-75
2023/07/13 13:54:15;;;;;;;;;;;;;;;;;;5079421;27;90145;-75
2023/07/13 13:56:45;;;;;;;;;;;;;;;;;;5077754;27;91529;-76
2023/07/13 13:59:10;;;;;;;;;;;;;;;;;;5082901;27;90402;-75
2023/07/13 14:01:36;;;;;;;;;;;;;;;;;;5075736;27;91684;-75
2023/07/13 14:04:01;;;;;;;;;;;;;;;;;;5077290;27;90093;-75
2023/07/13 14:06:28;;;;;;;;;;;;;;;;;;5076767;27;91279;-75
2023/07/13 14:08:55;;;;;;;;;;;;;;;;;;5078763;27;89222;-75
2023/07/13 14:11:21;;;;;;;;;;;;;;;;;;5080791;27;89890;-75
2023/07/13 14:13:57;;;;;;;;;;;;;;;;;;5077415;27;89737;-74
2023/07/13 14:16:27;;;;;;;;;;;;;;;;;;5079751;27;90264;-74
2023/07/13 14:18:53;;;;;;;;;;;;;;;;;;5084094;27;89767;-75
2023/07/13 14:21:19;;;;;;;;;;;;;;;;;;5084432;27;89610;-75
2023/07/13 14:23:45;;;;;;;;;;;;;;;;;;5083951;27;90471;-75
2023/07/13 14:26:12;;;;;;;;;;;;;;;;;;5078451;27;90649;-75
2023/07/13 14:28:38;;;;;;;;;;;;;;;;;;5086081;27;90818;-74
2023/07/13 14:31:04;;;;;;;;;;;;;;;;;;5084681;27;90316;-75
2023/07/13 14:33:29;;;;;;;;;;;;;;;;;;5077103;27;89828;-75
2023/07/13 14:35:55;;;;;;;;;;;;;;;;;;5081861;27;90229;-75
2023/07/13 14:38:20;;;;;;;;;;;;;;;;;;5078015;27;90508;-74
2023/07/13 14:40:45;;;;;;;;;;;;;;;;;;5080616;27;90738;-75
2023/07/13 14:43:14;;;;;;;;;;;;;;;;;;5081289;27;89572;-75
2023/07/13 14:45:41;;;;;;;;;;;;;;;;;;5082493;27;89905;-75
2023/07/13 14:48:21;;;;;;;;;;;;;;;;;;5079598;27;91496;-75
2023/07/13 14:50:46;;;;;;;;;;;;;;;;;;5080447;27;89715;-75
2023/07/13 14:53:12;;;;;;;;;;;;;;;;;;5077552;27;90487;-76
2023/07/13 14:55:38;;;;;;;;;;;;;;;;;;5078508;27;90686;-75
2023/07/13 14:58:03;;;;;;;;;;;;;;;;;;5081901;27;90156;-76
2023/07/13 15:00:28;;;;;;;;;;;;;;;;;;5086353;27;89536;-76
2023/07/13 15:02:55;;;;;;;;;;;;;;;;;;5078525;27;89323;-75
2023/07/13 15:05:24;;;;;;;;;;;;;;;;;;5081158;27;89470;-75
2023/07/13 15:07:52;;;;;;;;;;;;;;;;;;5078004;27;91282;-75
2023/07/13 15:10:25;;;;;;;;;;;;;;;;;;5078041;27;89044;-76
2023/07/13 15:12:51;;;;;;;;;;;;;;;;;;5081854;27;90618;-75
2023/07/13 15:15:16;;;;;;;;;;;;;;;;;;5078691;27;89646;-76
2023/07/13 15:17:43;;;;;;;;;;;;;;;;;;5083085;27;88991;-78
2023/07/13 15:20:11;;;;;;;;;;;;;;;;;;5081719;27;89705;-76
2023/07/13 15:22:36;;;;;;;;;;;;;;;;;;5076738;27;89696;-75
2023/07/13 15:25:03;;;;;;;;;;;;;;;;;;5084393;27;89122;-77
2023/07/13 15:27:28;;;;;;;;;;;;;;;;;;5079165;27;89953;-77
2023/07/13 15:29:54;;;;;;;;;;;;;;;;;;5079236;27;89605;-76
2023/07/13 15:32:19;;;;;;;;;;;;;;;;;;5081258;27;90282;-76
2023/07/13 15:34:45;;;;;;;;;;;;;;;;;;5076091;27;90284;-75
2023/07/13 15:37:15;;;;;;;;;;;;;;;;;;5084168;27;89151;-74
2023/07/13 15:39:40;;;;;;;;;;;;;;;;;;5082147;27;90697;-76
2023/07/13 15:42:08;;;;;;;;;;;;;;;;;;5070215;27;90313;-75
2023/07/13 15:44:33;;;;;;;;;;;;;;;;;;5081008;27;90855;-77
2023/07/13 15:47:00;;;;;;;;;;;;;;;;;;5080185;27;90028;-77
2023/07/13 15:49:25;;;;;;;;;;;;;;;;;;5081645;27;89764;-76
2023/07/13 15:51:50;;;;;;;;;;;;;;;;;;5080157;27;89576;-76
2023/07/13 15:54:17;;;;;;;;;;;;;;;;;;5078631;27;89498;-76
2023/07/13 15:56:44;;;;;;;;;;;;;;;;;;5079526;27;89158;-76
2023/07/13 15:59:12;;;;;;;;;;;;;;;;;;5079402;27;90672;-77
2023/07/13 16:01:38;;;;;;;;;;;;;;;;;;5078166;27;89280;-79
2023/07/13 16:04:03;;;;;;;;;;;;;;;;;;5080538;27;89385;-77
2023/07/13 16:06:30;;;;;;;;;;;;;;;;;;5080809;27;89434;-75
2023/07/13 16:08:57;;;;;;;;;;;;;;;;;;5085689;27;90121;-77
2023/07/13 16:11:23;;;;;;;;;;;;;;;;;;5080018;27;89944;-76
2023/07/13 16:13:54;;;;;;;;;;;;;;;;;;5077388;27;89563;-76
2023/07/13 16:16:20;;;;;;;;;;;;;;;;;;5079159;27;89637;-78
2023/07/13 16:18:45;;;;;;;;;;;;;;;;;;5080004;27;90489;-76
2023/07/13 16:21:12;;;;;;;;;;;;;;;;;;5079216;27;90121;-75
2023/07/13 16:23:38;;;;;;;;;;;;;;;;;;5081178;27;89251;-76
2023/07/13 16:26:04;;;;;;;;;;;;;;;;;;5079842;27;90330;-75
2023/07/13 16:28:30;;;;;;;;;;;;;;;;;;5078558;27;90154;-75
2023/07/13 16:30:55;;;;;;;;;;;;;;;;;;5083291;27;89238;-75
2023/07/13 16:33:21;;;;;;;;;;;;;;;;;;5078029;27;89434;-75
2023/07/13 16:35:47;;;;;;;;;;;;;;;;;;5078030;27;89443;-76
2023/07/13 16:38:17;;;;;;;;;;;;;;;;;;5080378;27;89660;-76
2023/07/13 16:40:43;;;;;;;;;;;;;;;;;;5076663;27;89942;-75
2023/07/13 16:43:11;;;;;;;;;;;;;;;;;;5076687;27;89662;-76
2023/07/13 16:45:37;;;;;;;;;;;;;;;;;;5077193;27;89557;-76